Time;durP1;ratioP1;P1;durP2;ratioP2;P2;SDS_P1;SDS_P2;PMS_P1;PMS_P2;Temp;Humidity;BMP_temperature;BMP_pressure;BME280_temperature;BME280_humidity;BME280_pressure;Samples;Min_cycle;Max_cycle;Signal;HPM_P1;HPM_P2
2021/05/09 00:00:19;;;;;;;9.95;7.43;;;11.30;98.40;;;;;;5054917;28;20048;-72
2021/05/09 00:02:45;;;;;;;10.52;7.15;;;11.30;98.40;;;;;;5055632;28;20045;-72
2021/05/09 00:05:11;;;;;;;11.05;7.47;;;11.20;98.50;;;;;;5054628;28;20043;-72
2021/05/09 00:07:37;;;;;;;9.32;7.00;;;11.20;98.50;;;;;;5055004;28;20037;-72
2021/05/09 00:10:05;;;;;;;12.15;7.40;;;11.20;98.50;;;;;;5054872;28;20052;-72
2021/05/09 00:12:30;;;;;;;11.35;7.75;;;11.20;98.50;;;;;;5055187;28;20037;-72
2021/05/09 00:14:56;;;;;;;10.82;7.97;;;11.10;98.50;;;;;;5054800;28;20467;-72
2021/05/09 00:17:23;;;;;;;11.75;8.10;;;11.10;98.50;;;;;;5054660;28;20452;-72
2021/05/09 00:19:49;;;;;;;10.20;7.50;;;11.10;98.50;;;;;;5054725;28;20032;-72
2021/05/09 00:22:15;;;;;;;9.40;7.70;;;11.00;98.50;;;;;;5054822;28;20068;-72
2021/05/09 00:24:41;;;;;;;10.00;7.25;;;11.00;98.50;;;;;;5054202;28;20477;-72
2021/05/09 00:27:27;;;;;;;13.82;8.90;;;11.00;98.60;;;;;;5039517;28;20558;-72
2021/05/09 00:29:53;;;;;;;9.45;7.93;;;11.00;98.60;;;;;;5036689;28;20045;-72
2021/05/09 00:32:20;;;;;;;12.30;8.52;;;11.00;98.60;;;;;;5054343;28;20090;-72
2021/05/09 00:34:46;;;;;;;12.05;8.65;;;10.90;98.70;;;;;;5054040;28;20440;-72
2021/05/09 00:37:12;;;;;;;8.45;7.55;;;10.90;98.70;;;;;;5054849;28;20072;-72
2021/05/09 00:39:38;;;;;;;10.35;7.80;;;10.90;98.70;;;;;;5037088;28;20086;-72
2021/05/09 00:42:06;;;;;;;11.80;8.40;;;10.90;98.80;;;;;;5054354;28;20041;-72
2021/05/09 00:44:34;;;;;;;11.40;8.05;;;10.90;99.10;;;;;;5054042;28;20097;-72
2021/05/09 00:47:13;;;;;;;9.68;7.20;;;10.90;98.80;;;;;;5054338;28;20041;-72
2021/05/09 00:49:39;;;;;;;9.55;8.13;;;10.90;98.80;;;;;;5053986;28;20163;-72
2021/05/09 00:52:10;;;;;;;13.05;8.23;;;10.90;98.70;;;;;;5054561;28;20493;-72
2021/05/09 00:55:01;;;;;;;9.77;8.40;;;10.90;98.70;;;;;;5053829;28;20048;-72
2021/05/09 00:57:32;;;;;;;13.25;8.95;;;10.90;98.80;;;;;;5054076;28;20492;-72
2021/05/09 01:00:06;;;;;;;9.88;7.55;;;10.80;98.80;;;;;;5054569;28;20068;-72
2021/05/09 01:02:32;;;;;;;10.85;8.38;;;10.80;98.80;;;;;;5053926;28;20037;-72
2021/05/09 01:04:59;;;;;;;12.07;8.18;;;10.80;98.70;;;;;;5053798;28;20116;-72
2021/05/09 01:07:24;;;;;;;11.77;7.78;;;10.80;99.00;;;;;;5053925;28;20037;-72
2021/05/09 01:09:53;;;;;;;8.55;7.50;;;10.70;98.60;;;;;;5036391;28;20065;-72
2021/05/09 01:12:18;;;;;;;8.07;6.68;;;10.70;98.60;;;;;;5054164;28;20531;-72
2021/05/09 01:14:44;;;;;;;10.10;6.70;;;10.60;98.60;;;;;;5053491;28;20040;-72
2021/05/09 01:17:11;;;;;;;15.63;8.15;;;10.60;98.60;;;;;;5053605;28;20040;-72
2021/05/09 01:19:38;;;;;;;10.85;8.40;;;10.60;98.60;;;;;;5053524;28;20041;-72
2021/05/09 01:22:05;;;;;;;12.80;8.07;;;10.60;98.70;;;;;;5053638;28;20094;-72
2021/05/09 01:24:31;;;;;;;9.15;7.85;;;10.60;98.80;;;;;;5053681;28;20162;-72
2021/05/09 01:26:57;;;;;;;11.00;6.80;;;10.50;98.80;;;;;;5053997;28;20056;-72
2021/05/09 01:29:25;;;;;;;11.45;7.75;;;10.50;98.80;;;;;;5053557;28;20072;-72
2021/05/09 01:31:52;;;;;;;10.73;8.40;;;10.50;98.80;;;;;;5053433;28;20037;-72
2021/05/09 01:34:20;;;;;;;8.57;7.47;;;10.50;98.90;;;;;;5053952;28;20064;-72
2021/05/09 01:36:47;;;;;;;14.73;8.32;;;10.50;98.90;;;;;;5053498;28;20044;-72
2021/05/09 01:39:13;;;;;;;10.13;8.02;;;10.40;98.90;;;;;;5053454;28;20044;-72
2021/05/09 01:41:39;;;;;;;10.52;8.48;;;10.50;98.90;;;;;;5052541;28;20047;-72
2021/05/09 01:44:05;;;;;;;10.98;7.18;;;10.40;98.90;;;;;;5053077;28;20400;-72
2021/05/09 01:46:31;;;;;;;9.40;7.28;;;10.50;98.90;;;;;;5052860;28;20450;-72
2021/05/09 01:48:57;;;;;;;11.48;8.05;;;10.50;98.90;;;;;;5053410;28;20037;-72
2021/05/09 01:51:23;;;;;;;9.55;7.10;;;10.40;98.90;;;;;;5053158;28;20041;-72
2021/05/09 01:53:48;;;;;;;9.88;7.10;;;10.40;99.00;;;;;;5035392;28;20050;-72
2021/05/09 01:56:14;;;;;;;9.70;7.50;;;10.40;98.90;;;;;;5052833;28;20485;-72
2021/05/09 01:58:41;;;;;;;10.43;7.30;;;10.30;98.90;;;;;;5053224;28;20107;-72
2021/05/09 02:01:07;;;;;;;10.70;7.88;;;10.30;98.90;;;;;;5053527;28;20128;-72
2021/05/09 02:03:32;;;;;;;13.15;8.18;;;10.30;99.10;;;;;;5052866;28;20123;-72
2021/05/09 02:05:58;;;;;;;9.68;6.32;;;10.30;99.10;;;;;;5052616;28;20036;-72
2021/05/09 02:08:24;;;;;;;8.63;7.13;;;10.30;98.90;;;;;;5052995;28;20037;-72
2021/05/09 02:10:51;;;;;;;11.88;7.90;;;10.30;98.90;;;;;;5053242;28;20033;-72
2021/05/09 02:13:16;;;;;;;13.27;7.88;;;10.30;99.00;;;;;;5052953;28;20128;-72
2021/05/09 02:15:42;;;;;;;13.57;8.02;;;10.20;99.00;;;;;;5052626;28;20088;-72
2021/05/09 02:18:08;;;;;;;9.05;7.07;;;10.20;99.10;;;;;;5052812;28;20547;-72
2021/05/09 02:20:33;;;;;;;8.07;6.57;;;10.20;99.00;;;;;;5052824;28;20485;-72
2021/05/09 02:23:06;;;;;;;12.60;7.97;;;10.20;99.00;;;;;;5053116;28;20067;-72
2021/05/09 02:25:32;;;;;;;9.43;6.93;;;10.20;99.00;;;;;;5052880;28;20029;-72
2021/05/09 02:27:58;;;;;;;10.15;6.85;;;10.10;99.00;;;;;;5053022;28;20124;-72
2021/05/09 02:30:24;;;;;;;10.85;7.97;;;10.10;99.00;;;;;;5053285;28;20041;-72
2021/05/09 02:32:50;;;;;;;9.68;7.05;;;10.10;99.10;;;;;;5035504;28;20044;-72
2021/05/09 02:35:15;;;;;;;12.82;7.45;;;10.10;99.00;;;;;;5052504;28;20040;-72
2021/05/09 02:37:41;;;;;;;10.93;7.65;;;10.00;99.00;;;;;;5053295;28;20048;-72
2021/05/09 02:40:07;;;;;;;12.55;7.80;;;10.00;99.00;;;;;;5052653;28;20041;-72
2021/05/09 02:42:34;;;;;;;10.32;6.70;;;10.00;99.40;;;;;;5053271;28;20041;-72
2021/05/09 02:45:00;;;;;;;10.00;7.70;;;10.00;99.20;;;;;;5052251;28;20444;-72
2021/05/09 02:47:29;;;;;;;10.75;7.55;;;10.00;99.20;;;;;;5052717;28;20032;-72
2021/05/09 02:50:04;;;;;;;7.95;6.47;;;10.00;99.30;;;;;;5052841;28;20037;-72
2021/05/09 02:52:30;;;;;;;8.73;6.93;;;10.00;99.20;;;;;;5052517;28;20028;-72
2021/05/09 02:54:55;;;;;;;10.07;7.18;;;10.10;99.20;;;;;;5055653;28;20066;-72
2021/05/09 02:57:21;;;;;;;14.60;8.65;;;10.10;99.30;;;;;;5056474;28;20479;-72
2021/05/09 02:59:47;;;;;;;13.93;8.13;;;10.10;99.30;;;;;;5056802;28;20040;-72
2021/05/09 03:02:12;;;;;;;11.75;6.90;;;10.20;99.20;;;;;;5056823;28;20036;-72
2021/05/09 03:04:39;;;;;;;10.40;7.30;;;10.10;99.20;;;;;;5055987;28;20041;-72
2021/05/09 03:07:05;;;;;;;9.88;7.63;;;10.10;99.30;;;;;;5056476;28;20052;-72
2021/05/09 03:09:31;;;;;;;12.88;7.50;;;10.10;99.30;;;;;;5056013;28;20036;-72
2021/05/09 03:11:57;;;;;;;9.20;7.65;;;10.10;99.30;;;;;;5056451;28;20048;-72
2021/05/09 03:14:23;;;;;;;12.32;7.93;;;10.10;99.40;;;;;;5056230;28;20436;-73
2021/05/09 03:16:49;;;;;;;9.80;7.38;;;10.10;99.30;;;;;;5055679;28;20044;-72
2021/05/09 03:19:15;;;;;;;11.70;7.25;;;10.10;99.30;;;;;;5056018;28;20040;-72
2021/05/09 03:21:41;;;;;;;12.25;8.35;;;10.10;99.30;;;;;;5055916;28;20087;-72
2021/05/09 03:24:12;;;;;;;11.32;7.68;;;10.10;99.30;;;;;;5055730;28;20120;-72
2021/05/09 03:26:38;;;;;;;10.23;7.07;;;10.10;99.30;;;;;;5055432;28;20401;-72
2021/05/09 03:29:04;;;;;;;10.88;7.32;;;10.10;99.30;;;;;;5055754;28;20040;-72
2021/05/09 03:31:31;;;;;;;11.43;7.50;;;10.10;99.30;;;;;;5055732;28;20041;-72
2021/05/09 03:33:57;;;;;;;11.55;7.53;;;10.10;99.40;;;;;;5055629;28;20064;-72
2021/05/09 03:36:22;;;;;;;10.73;6.85;;;10.10;99.30;;;;;;5055133;28;20481;-72
2021/05/09 03:38:48;;;;;;;9.20;7.18;;;10.10;99.40;;;;;;5055963;28;20043;-72
2021/05/09 03:41:14;;;;;;;10.57;7.57;;;10.10;99.40;;;;;;5055361;28;20036;-72
2021/05/09 03:43:40;;;;;;;13.40;7.40;;;10.10;99.50;;;;;;5055935;28;20048;-72
2021/05/09 03:46:06;;;;;;;12.80;6.93;;;10.10;99.50;;;;;;5037224;28;20039;-72
2021/05/09 03:48:32;;;;;;;12.27;7.95;;;10.10;99.30;;;;;;5037864;28;20032;-72
2021/05/09 03:50:58;;;;;;;9.57;6.43;;;10.10;99.30;;;;;;5055505;28;20037;-72
2021/05/09 03:53:24;;;;;;;13.80;7.57;;;10.20;99.30;;;;;;5055544;28;20067;-72
2021/05/09 03:55:50;;;;;;;13.13;6.88;;;10.20;99.30;;;;;;5055018;28;20473;-72
2021/05/09 03:58:16;;;;;;;11.85;6.82;;;10.20;99.30;;;;;;5055634;28;20044;-72
2021/05/09 04:00:42;;;;;;;10.57;7.13;;;10.20;99.20;;;;;;5055059;28;20033;-72
2021/05/09 04:03:22;;;;;;;13.98;7.00;;;10.20;99.30;;;;;;5054992;28;20068;-72
2021/05/09 04:05:53;;;;;;;12.88;7.35;;;10.20;99.30;;;;;;5053973;28;20385;-72
2021/05/09 04:08:23;;;;;;;10.50;7.13;;;10.20;99.20;;;;;;5055467;28;20587;-72
2021/05/09 04:10:50;;;;;;;11.00;6.82;;;10.20;99.20;;;;;;5055390;28;20033;-72
2021/05/09 04:13:15;;;;;;;11.93;7.10;;;10.20;99.20;;;;;;5054879;28;20036;-72
2021/05/09 04:15:41;;;;;;;13.23;7.55;;;10.20;99.30;;;;;;5054450;28;20039;-72
2021/05/09 04:18:07;;;;;;;11.38;7.80;;;10.20;99.30;;;;;;5054666;28;20037;-72
2021/05/09 04:20:33;;;;;;;13.00;7.55;;;10.30;99.30;;;;;;5054647;28;20063;-72
2021/05/09 04:23:17;;;;;;;10.57;6.53;;;10.30;99.30;;;;;;5054622;28;20041;-72
2021/05/09 04:25:51;;;;;;;13.60;7.50;;;10.30;99.20;;;;;;5036659;28;20098;-72
2021/05/09 04:28:18;;;;;;;7.80;6.18;;;10.30;99.20;;;;;;5054475;28;20544;-72
2021/05/09 04:30:48;;;;;;;13.13;8.13;;;10.40;99.20;;;;;;5054662;28;20037;-72
2021/05/09 04:33:15;;;;;;;11.43;7.95;;;10.40;99.20;;;;;;5054450;28;20068;-72
2021/05/09 04:35:43;;;;;;;10.43;7.45;;;10.50;99.30;;;;;;5054041;28;20508;-72
2021/05/09 04:38:10;;;;;;;12.98;7.30;;;10.60;99.30;;;;;;5054385;28;20043;-72
2021/05/09 04:40:36;;;;;;;10.77;7.18;;;10.60;99.20;;;;;;5054629;28;20458;-72
2021/05/09 04:43:09;;;;;;;9.90;7.18;;;10.70;99.20;;;;;;5054183;28;20401;-72
2021/05/09 04:45:35;;;;;;;11.40;7.45;;;10.80;99.30;;;;;;5054180;28;20037;-72
2021/05/09 04:48:02;;;;;;;12.55;7.68;;;10.90;99.20;;;;;;5054742;28;20037;-72
2021/05/09 04:50:28;;;;;;;11.88;7.18;;;11.10;99.20;;;;;;5054091;28;20037;-72
2021/05/09 04:52:54;;;;;;;12.75;7.20;;;11.20;99.20;;;;;;5053885;28;20037;-72
2021/05/09 04:55:20;;;;;;;14.32;7.47;;;11.40;99.00;;;;;;5053988;28;20405;-72
2021/05/09 04:57:45;;;;;;;14.05;6.70;;;11.60;98.90;;;;;;5053907;28;20107;-72
2021/05/09 05:00:14;;;;;;;9.13;5.97;;;11.80;98.70;;;;;;5054058;28;20032;-72
2021/05/09 05:02:44;;;;;;;10.60;6.75;;;12.10;98.50;;;;;;5054509;28;20091;-72
2021/05/09 05:05:10;;;;;;;10.05;5.82;;;12.20;98.40;;;;;;5053806;28;20124;-72
2021/05/09 05:07:36;;;;;;;11.80;6.28;;;12.40;98.10;;;;;;5054201;28;20033;-72
2021/05/09 05:10:02;;;;;;;8.75;6.10;;;12.60;97.90;;;;;;5053812;28;20036;-72
2021/05/09 05:12:29;;;;;;;15.50;6.35;;;12.70;97.60;;;;;;5054062;28;20037;-72
2021/05/09 05:14:54;;;;;;;8.75;5.20;;;13.00;97.40;;;;;;5053290;28;20037;-72
2021/05/09 05:17:20;;;;;;;13.05;6.38;;;13.10;97.00;;;;;;5053912;28;20033;-72
2021/05/09 05:19:45;;;;;;;9.30;5.43;;;13.30;96.70;;;;;;5053617;28;20069;-72
2021/05/09 05:22:11;;;;;;;10.50;6.30;;;13.40;96.50;;;;;;5053743;28;20120;-72
2021/05/09 05:24:37;;;;;;;7.53;5.88;;;13.60;96.30;;;;;;5053446;28;20065;-72
2021/05/09 05:27:03;;;;;;;8.10;6.20;;;13.70;96.10;;;;;;5053534;28;20091;-72
2021/05/09 05:29:28;;;;;;;7.80;5.45;;;13.90;95.80;;;;;;5053377;28;20116;-72
2021/05/09 05:31:54;;;;;;;9.63;5.05;;;14.20;95.60;;;;;;5054029;28;20094;-72
2021/05/09 05:34:20;;;;;;;8.70;5.30;;;14.40;95.40;;;;;;5053249;28;20037;-72
2021/05/09 05:36:46;;;;;;;6.88;4.88;;;14.80;94.90;;;;;;5053001;28;20041;-72
2021/05/09 05:39:12;;;;;;;12.50;5.60;;;15.00;94.50;;;;;;5053659;28;20041;-72
2021/05/09 05:41:38;;;;;;;8.52;5.15;;;15.20;94.20;;;;;;5035886;28;20033;-72
2021/05/09 05:44:04;;;;;;;6.93;4.63;;;15.10;93.90;;;;;;5053786;28;20132;-72
2021/05/09 05:46:30;;;;;;;8.15;5.32;;;15.30;93.70;;;;;;5053189;28;20041;-72
2021/05/09 05:48:57;;;;;;;8.27;4.72;;;15.50;93.50;;;;;;5053158;28;20467;-72
2021/05/09 05:51:23;;;;;;;6.40;4.20;;;15.70;93.20;;;;;;5053183;28;20037;-72
2021/05/09 05:53:49;;;;;;;7.53;4.90;;;15.90;93.00;;;;;;5053368;28;20037;-72
2021/05/09 05:56:15;;;;;;;8.30;5.65;;;16.10;92.80;;;;;;5053251;28;20099;-72
2021/05/09 05:58:40;;;;;;;7.75;4.93;;;16.20;92.70;;;;;;5053413;28;20452;-72
2021/05/09 06:01:07;;;;;;;8.02;4.40;;;16.30;92.80;;;;;;5053664;28;20037;-72
2021/05/09 06:03:32;;;;;;;8.80;5.55;;;16.30;92.70;;;;;;5053060;28;20041;-72
2021/05/09 06:05:58;;;;;;;7.15;5.20;;;16.30;92.60;;;;;;5052836;28;20060;-72
2021/05/09 06:08:24;;;;;;;7.15;5.20;;;16.40;92.60;;;;;;5052947;28;20107;-72
2021/05/09 06:10:50;;;;;;;7.00;4.70;;;16.50;92.50;;;;;;5052982;28;20033;-72
2021/05/09 06:13:20;;;;;;;9.50;4.63;;;16.60;92.50;;;;;;5052893;28;20052;-72
2021/05/09 06:15:46;;;;;;;11.32;4.63;;;16.70;92.10;;;;;;5052991;28;20044;-73
2021/05/09 06:18:12;;;;;;;10.93;5.18;;;16.70;92.00;;;;;;5053385;28;20033;-72
2021/05/09 06:20:38;;;;;;;7.90;4.63;;;16.80;92.30;;;;;;5052866;28;20127;-72
2021/05/09 06:23:04;;;;;;;8.75;5.88;;;17.00;92.10;;;;;;5052753;28;20122;-72
2021/05/09 06:25:31;;;;;;;8.80;5.25;;;17.10;92.20;;;;;;5052499;28;20037;-72
2021/05/09 06:27:56;;;;;;;8.73;4.57;;;17.30;91.90;;;;;;5052879;28;20067;-72
2021/05/09 06:30:22;;;;;;;9.68;5.10;;;17.60;91.60;;;;;;5057447;28;20059;-72
2021/05/09 06:32:48;;;;;;;10.13;5.40;;;17.90;91.40;;;;;;5056661;28;20033;-72
2021/05/09 06:35:15;;;;;;;6.80;4.60;;;18.10;90.90;;;;;;5056603;28;20041;-72
2021/05/09 06:37:41;;;;;;;9.88;5.22;;;18.20;90.40;;;;;;5056980;28;20033;-72
2021/05/09 06:40:07;;;;;;;9.98;4.80;;;18.20;90.20;;;;;;5056561;28;20063;-72
2021/05/09 06:42:33;;;;;;;7.25;4.72;;;18.40;90.00;;;;;;5056809;28;20056;-73
2021/05/09 06:45:05;;;;;;;5.22;3.45;;;18.40;89.50;;;;;;5056139;28;20037;-73
2021/05/09 06:47:30;;;;;;;7.63;4.03;;;18.50;89.10;;;;;;5056675;28;20091;-72
2021/05/09 06:49:56;;;;;;;9.25;4.35;;;18.60;88.70;;;;;;5056251;28;20040;-73
2021/05/09 06:52:22;;;;;;;9.15;4.45;;;18.70;87.90;;;;;;5056433;28;20033;-73
2021/05/09 06:54:48;;;;;;;8.38;4.68;;;18.80;87.40;;;;;;5056403;28;20401;-73
2021/05/09 06:57:13;;;;;;;9.70;4.75;;;18.90;87.10;;;;;;5056903;28;20037;-73
2021/05/09 06:59:40;;;;;;;7.75;3.92;;;18.90;86.20;;;;;;5056126;28;20067;-72
2021/05/09 07:02:06;;;;;;;7.85;4.40;;;19.20;86.80;;;;;;5056685;28;20416;-72
2021/05/09 07:04:32;;;;;;;7.35;4.00;;;19.30;86.10;;;;;;5055740;28;20044;-73
2021/05/09 07:06:57;;;;;;;8.02;4.22;;;19.40;85.50;;;;;;5056461;28;20041;-72
2021/05/09 07:09:23;;;;;;;7.18;4.30;;;19.80;85.10;;;;;;5056501;28;20060;-73
2021/05/09 07:11:49;;;;;;;6.85;4.55;;;20.00;84.70;;;;;;5056125;28;20440;-72
2021/05/09 07:14:14;;;;;;;6.10;3.97;;;20.10;83.60;;;;;;5056334;28;20087;-72
2021/05/09 07:16:40;;;;;;;6.88;4.30;;;20.30;83.50;;;;;;5055663;28;20041;-72
2021/05/09 07:19:08;;;;;;;7.75;3.50;;;20.40;83.20;;;;;;5056095;28;20086;-72
2021/05/09 07:21:46;;;;;;;6.85;3.72;;;20.40;83.20;;;;;;5056500;28;20052;-72
2021/05/09 07:24:12;;;;;;;8.32;4.13;;;20.50;83.10;;;;;;5055877;28;20044;-72
2021/05/09 07:26:38;;;;;;;6.38;3.83;;;20.30;82.30;;;;;;5055406;28;20037;-73
2021/05/09 07:29:04;;;;;;;6.43;3.60;;;20.40;82.60;;;;;;5055471;28;20043;-72
2021/05/09 07:31:31;;;;;;;9.18;4.22;;;20.50;82.10;;;;;;5056143;28;20094;-72
2021/05/09 07:33:57;;;;;;;6.57;3.88;;;20.40;82.10;;;;;;5055482;28;20045;-71
2021/05/09 07:36:23;;;;;;;7.05;3.95;;;20.50;82.40;;;;;;5055077;28;20107;-72
2021/05/09 07:38:49;;;;;;;7.72;3.97;;;20.50;83.10;;;;;;5056182;28;20037;-72
2021/05/09 07:41:14;;;;;;;4.70;3.38;;;20.40;82.30;;;;;;5056007;28;20476;-70
2021/05/09 07:43:40;;;;;;;6.38;3.42;;;20.10;82.30;;;;;;5055516;28;20489;-71
2021/05/09 07:46:06;;;;;;;6.95;4.18;;;19.90;82.30;;;;;;5054758;28;20049;-71
2021/05/09 07:48:32;;;;;;;7.93;3.90;;;20.10;83.20;;;;;;5055694;28;20116;-71
2021/05/09 07:51:00;;;;;;;5.55;3.13;;;20.00;83.30;;;;;;5055038;28;20493;-72
2021/05/09 07:53:25;;;;;;;5.95;3.58;;;20.00;83.30;;;;;;5055066;28;20036;-72
2021/05/09 07:55:51;;;;;;;4.93;3.35;;;20.00;82.50;;;;;;5054872;28;20048;-71
2021/05/09 07:58:19;;;;;;;12.25;4.30;;;20.10;81.90;;;;;;5055150;28;20040;-71
2021/05/09 08:00:45;;;;;;;5.72;3.50;;;20.10;81.40;;;;;;5054814;28;20044;-71
2021/05/09 08:03:12;;;;;;;7.82;4.32;;;20.00;82.70;;;;;;5055385;28;20469;-72
2021/05/09 08:05:38;;;;;;;7.15;3.88;;;20.00;83.70;;;;;;5054726;28;20397;-72
2021/05/09 08:08:04;;;;;;;5.75;3.78;;;19.70;83.50;;;;;;5055363;28;20492;-72
2021/05/09 08:10:36;;;;;;;5.70;3.50;;;19.60;83.60;;;;;;5054982;28;20037;-71
2021/05/09 08:13:04;;;;;;;6.03;3.38;;;19.70;83.90;;;;;;5054885;28;20033;-71
2021/05/09 08:15:30;;;;;;;7.68;3.63;;;19.80;83.90;;;;;;5054399;28;20043;-71
2021/05/09 08:17:56;;;;;;;6.15;3.38;;;20.00;83.90;;;;;;5054858;28;20124;-71
2021/05/09 08:20:22;;;;;;;4.63;3.60;;;19.90;82.70;;;;;;5055209;28;20125;-70
2021/05/09 08:22:47;;;;;;;6.40;3.47;;;20.30;82.00;;;;;;5055265;28;20048;-71
2021/05/09 08:25:15;;;;;;;6.43;3.10;;;20.40;81.00;;;;;;5054314;28;20036;-71
2021/05/09 08:27:41;;;;;;;4.93;3.38;;;20.80;80.70;;;;;;5054655;28;20040;-70
2021/05/09 08:30:07;;;;;;;4.82;3.13;;;21.10;79.20;;;;;;5054710;28;20040;-70
2021/05/09 08:32:33;;;;;;;5.47;3.42;;;21.40;77.80;;;;;;5054952;28;20063;-70
2021/05/09 08:35:00;;;;;;;3.95;2.78;;;21.60;78.30;;;;;;5054515;28;20045;-71
2021/05/09 08:37:27;;;;;;;4.68;2.65;;;21.70;76.00;;;;;;5054917;28;20064;-71
2021/05/09 08:39:53;;;;;;;5.15;3.00;;;22.00;76.50;;;;;;5054193;28;20112;-70
2021/05/09 08:42:20;;;;;;;3.60;2.90;;;22.20;77.30;;;;;;5054532;28;20063;-71
2021/05/09 08:44:50;;;;;;;4.28;2.70;;;22.20;77.80;;;;;;5053967;28;20040;-71
2021/05/09 08:47:36;;;;;;;6.57;2.75;;;22.40;77.90;;;;;;5036285;28;20071;-71
2021/05/09 08:50:06;;;;;;;4.57;2.75;;;22.60;77.30;;;;;;5054254;28;20490;-71
2021/05/09 08:52:34;;;;;;;7.20;3.05;;;22.80;77.70;;;;;;5053585;28;20048;-71
2021/05/09 08:55:00;;;;;;;3.78;2.42;;;22.70;74.80;;;;;;5053759;28;20406;-71
2021/05/09 08:57:27;;;;;;;7.70;3.00;;;23.10;74.70;;;;;;5054230;28;20037;-71
2021/05/09 08:59:52;;;;;;;4.80;2.92;;;23.20;74.70;;;;;;5054486;28;20037;-71
2021/05/09 09:02:22;;;;;;;4.38;2.75;;;23.20;73.30;;;;;;5053791;28;20045;-71
2021/05/09 09:04:51;;;;;;;3.55;2.10;;;23.30;72.60;;;;;;5053592;28;20037;-71
2021/05/09 09:07:17;;;;;;;4.55;2.42;;;23.40;73.40;;;;;;5053730;28;20123;-71
2021/05/09 09:09:44;;;;;;;4.88;2.70;;;23.60;74.20;;;;;;5053975;28;20119;-71
2021/05/09 09:12:11;;;;;;;5.68;2.45;;;23.40;73.90;;;;;;5053613;28;20114;-71
2021/05/09 09:14:53;;;;;;;3.80;2.17;;;23.30;73.80;;;;;;5053798;28;20119;-71
2021/05/09 09:17:19;;;;;;;3.63;2.80;;;23.50;72.80;;;;;;5035719;28;20112;-71
2021/05/09 09:20:05;;;;;;;3.42;2.25;;;23.60;73.80;;;;;;5054097;28;20036;-71
2021/05/09 09:22:59;;;;;;;3.60;2.53;;;23.30;71.60;;;;;;5053950;28;20166;-70
2021/05/09 09:25:30;;;;;;;5.22;2.30;;;22.80;72.00;;;;;;5050562;28;20049;-69
2021/05/09 09:27:57;;;;;;;3.05;2.20;;;22.60;72.80;;;;;;5053158;28;20044;-72
2021/05/09 09:30:24;;;;;;;5.45;2.20;;;22.20;73.60;;;;;;5053680;28;20040;-70
2021/05/09 09:33:18;;;;;;;7.28;2.75;;;22.00;74.90;;;;;;5053749;28;20400;-70
2021/05/09 09:35:47;;;;;;;6.90;2.53;;;21.70;76.30;;;;;;5052949;28;20033;-70
2021/05/09 09:38:30;;;;;;;6.53;2.80;;;21.30;79.30;;;;;;5053390;28;20045;-71
2021/05/09 09:41:16;;;;;;;5.63;2.30;;;21.00;80.60;;;;;;5053198;28;20048;-69
2021/05/09 09:43:58;;;;;;;2.40;1.67;;;20.70;80.60;;;;;;5054104;28;20116;-69
2021/05/09 09:46:26;;;;;;;5.32;2.00;;;20.40;81.90;;;;;;5052906;28;20473;-69
2021/05/09 09:48:52;;;;;;;5.60;2.17;;;20.10;82.60;;;;;;5053290;28;20135;-70
2021/05/09 09:51:17;;;;;;;4.63;2.38;;;20.00;82.80;;;;;;5053281;28;20489;-69
2021/05/09 09:53:44;;;;;;;5.93;2.65;;;19.80;84.30;;;;;;5053163;28;20067;-68
2021/05/09 09:56:17;;;;;;;5.38;2.70;;;19.50;86.20;;;;;;5052639;28;20126;-68
2021/05/09 09:58:44;;;;;;;5.72;2.67;;;19.50;87.00;;;;;;5053696;28;20065;-68
2021/05/09 10:01:10;;;;;;;5.05;3.53;;;19.30;87.50;;;;;;5053193;28;20043;-69
2021/05/09 10:03:37;;;;;;;4.35;2.28;;;19.10;88.00;;;;;;5054962;28;20037;-69
2021/05/09 10:06:03;;;;;;;4.47;2.47;;;19.00;88.00;;;;;;5056780;28;20036;-70
2021/05/09 10:08:29;;;;;;;5.75;2.58;;;18.90;88.40;;;;;;5057565;28;20532;-71
2021/05/09 10:10:55;;;;;;;3.75;2.63;;;18.70;88.80;;;;;;5057165;28;20082;-71
2021/05/09 10:13:22;;;;;;;9.18;2.88;;;18.60;88.30;;;;;;5057593;28;20037;-70
2021/05/09 10:15:52;;;;;;;5.55;3.53;;;18.40;89.60;;;;;;5056887;28;20041;-71
2021/05/09 10:18:19;;;;;;;5.80;3.20;;;18.30;89.40;;;;;;5057202;28;20068;-71
2021/05/09 10:20:45;;;;;;;6.07;3.33;;;18.40;88.20;;;;;;5057398;28;20393;-71
2021/05/09 10:23:12;;;;;;;4.35;2.78;;;18.40;87.10;;;;;;5057226;28;20071;-71
2021/05/09 10:25:51;;;;;;;6.82;2.67;;;18.40;86.40;;;;;;5056518;28;20493;-71
2021/05/09 10:28:19;;;;;;;4.30;2.53;;;18.40;85.60;;;;;;5056823;28;20048;-71
2021/05/09 10:30:50;;;;;;;3.42;2.30;;;18.50;85.20;;;;;;5057040;28;20033;-71
2021/05/09 10:33:38;;;;;;;8.07;3.33;;;18.60;86.20;;;;;;5056931;28;20041;-71
2021/05/09 10:36:20;;;;;;;4.45;3.45;;;19.10;87.50;;;;;;5056350;28;20124;-72
2021/05/09 10:39:05;;;;;;;7.05;4.05;;;19.60;89.20;;;;;;5056540;28;20041;-72
2021/05/09 10:41:31;;;;;;;4.07;2.97;;;19.90;87.50;;;;;;5056880;28;20037;-71
2021/05/09 10:43:57;;;;;;;9.45;4.18;;;20.20;85.40;;;;;;5057251;28;20492;-71
2021/05/09 10:46:23;;;;;;;3.42;2.80;;;20.40;84.90;;;;;;5056603;28;20056;-71
2021/05/09 10:49:08;;;;;;;6.00;2.95;;;20.60;83.80;;;;;;5056963;28;20032;-71
2021/05/09 10:51:34;;;;;;;5.05;2.88;;;20.80;82.80;;;;;;5056670;28;20037;-71
2021/05/09 10:54:19;;;;;;;6.53;2.67;;;21.00;81.40;;;;;;5056182;28;20045;-71
2021/05/09 10:56:45;;;;;;;7.22;3.20;;;21.20;81.00;;;;;;5055934;28;20032;-70
2021/05/09 10:59:10;;;;;;;4.68;2.78;;;21.40;78.30;;;;;;5056939;28;20044;-71
2021/05/09 11:01:37;;;;;;;5.68;3.28;;;21.50;80.10;;;;;;5056254;28;20036;-71
2021/05/09 11:04:10;;;;;;;4.78;2.63;;;21.60;78.60;;;;;;5056336;28;20383;-70
2021/05/09 11:06:40;;;;;;;3.58;1.67;;;21.60;76.70;;;;;;5055722;28;20413;-72
2021/05/09 11:09:11;;;;;;;3.45;2.45;;;21.70;75.40;;;;;;5056641;28;20465;-71
2021/05/09 11:11:37;;;;;;;3.20;2.10;;;22.00;73.70;;;;;;5056683;28;20044;-71
2021/05/09 11:14:10;;;;;;;5.07;2.45;;;22.10;75.20;;;;;;5055502;28;20041;-71
2021/05/09 11:16:57;;;;;;;2.35;1.73;;;22.00;75.90;;;;;;5037937;28;20037;-70
2021/05/09 11:19:25;;;;;;;2.47;1.65;;;22.00;73.10;;;;;;5055911;28;20033;-70
2021/05/09 11:21:54;;;;;;;5.22;2.10;;;21.90;73.50;;;;;;5038718;28;20379;-71
2021/05/09 11:24:31;;;;;;;2.55;1.70;;;21.80;72.10;;;;;;5056218;28;20037;-72
2021/05/09 11:26:59;;;;;;;2.63;1.58;;;21.90;70.40;;;;;;5056464;28;20046;-71
2021/05/09 11:29:27;;;;;;;3.53;1.60;;;22.10;71.40;;;;;;5055644;28;20037;-71
2021/05/09 11:31:54;;;;;;;2.45;1.58;;;22.20;71.00;;;;;;5055736;28;20044;-71
2021/05/09 11:34:21;;;;;;;2.33;1.35;;;22.20;70.50;;;;;;5056122;28;20037;-71
2021/05/09 11:36:50;;;;;;;4.82;1.88;;;22.20;69.70;;;;;;5055499;28;20040;-71
2021/05/09 11:39:19;;;;;;;3.67;1.58;;;22.20;68.30;;;;;;5055575;28;20045;-71
2021/05/09 11:42:06;;;;;;;4.95;2.00;;;22.20;69.60;;;;;;5055960;28;20476;-71
2021/05/09 11:44:48;;;;;;;4.05;1.60;;;22.40;69.20;;;;;;5055672;28;20045;-72
2021/05/09 11:47:15;;;;;;;3.55;1.80;;;22.60;69.10;;;;;;5056054;28;20416;-71
2021/05/09 11:49:44;;;;;;;3.50;1.48;;;22.60;69.40;;;;;;5055414;28;20044;-71
2021/05/09 11:52:17;;;;;;;5.00;1.65;;;22.80;70.20;;;;;;5055537;28;20040;-73
2021/05/09 11:54:44;;;;;;;;;;;22.70;67.30;;;;;;5055911;28;20102;-71
2021/05/09 11:57:10;;;;;;;4.50;1.20;;;22.70;67.50;;;;;;5055306;28;20328;-71
2021/05/09 11:59:40;;;;;;;4.32;1.27;;;22.80;67.60;;;;;;5054948;28;20087;-71
2021/05/09 12:02:20;;;;;;;1.38;0.90;;;22.90;64.90;;;;;;5055607;28;20033;-71
2021/05/09 12:05:09;;;;;;;2.22;1.27;;;22.90;64.90;;;;;;5054833;28;20428;-70
2021/05/09 12:07:44;;;;;;;4.32;1.35;;;23.00;64.80;;;;;;5054880;28;20097;-71
2021/05/09 12:10:26;;;;;;;2.58;1.50;;;22.90;64.20;;;;;;5054974;28;20489;-71
2021/05/09 12:13:04;;;;;;;1.88;1.08;;;22.90;63.30;;;;;;5055393;28;20180;-71
2021/05/09 12:15:44;;;;;;;3.72;1.13;;;22.90;65.20;;;;;;5054520;28;20128;-70
2021/05/09 12:18:12;;;;;;;2.17;0.90;;;23.00;64.70;;;;;;5054571;28;20037;-70
2021/05/09 12:20:40;;;;;;;3.35;1.10;;;23.20;65.90;;;;;;5054739;28;20037;-70
2021/05/09 12:23:15;;;;;;;1.83;0.93;;;23.40;65.80;;;;;;5054795;28;20041;-70
2021/05/09 12:25:43;;;;;;;3.03;1.20;;;23.50;64.20;;;;;;5036351;28;20037;-70
2021/05/09 12:28:10;;;;;;;4.80;1.38;;;23.60;64.50;;;;;;5054798;28;20036;-70
2021/05/09 12:30:35;;;;;;;1.65;0.98;;;23.70;63.10;;;;;;5055133;28;20044;-71
2021/05/09 12:33:01;;;;;;;2.10;1.05;;;23.60;64.80;;;;;;5036727;28;20036;-71
2021/05/09 12:35:27;;;;;;;3.45;1.48;;;23.70;65.60;;;;;;5054762;28;20072;-70
2021/05/09 12:37:53;;;;;;;3.33;1.48;;;23.70;64.40;;;;;;5036784;28;20091;-71
2021/05/09 12:40:29;;;;;;;5.90;1.73;;;23.60;64.70;;;;;;5054820;28;20383;-71
2021/05/09 12:42:59;;;;;;;2.53;1.55;;;23.50;66.80;;;;;;5054435;28;20120;-71
2021/05/09 12:45:27;;;;;;;1.77;1.05;;;23.40;67.50;;;;;;5053866;28;20099;-71
2021/05/09 12:48:37;;;;;;;2.90;1.33;;;23.40;68.40;;;;;;5054316;28;20495;-71